createdAt,value
2022-09-12T00:00:24.314Z,13.57
2022-09-12T00:02:53.775Z,13.68
2022-09-12T00:05:21.616Z,13.57
2022-09-12T00:07:49.607Z,13.24
2022-09-12T00:10:17.991Z,13.19
2022-09-12T00:12:45.758Z,13.25
2022-09-12T00:15:13.692Z,13.13
2022-09-12T00:17:42.691Z,12.93
2022-09-12T00:20:12.196Z,12.96
2022-09-12T00:22:39.876Z,13.02
2022-09-12T00:25:08.822Z,13.08
2022-09-12T00:27:36.505Z,13.02
2022-09-12T00:30:05.402Z,13.15
2022-09-12T00:32:33.092Z,13.11
2022-09-12T00:35:02.778Z,13.20
2022-09-12T00:37:30.447Z,13.19
2022-09-12T00:39:58.533Z,13.28
2022-09-12T00:42:26.313Z,13.22
2022-09-12T00:44:54.056Z,13.12
2022-09-12T00:47:25.475Z,13.25
2022-09-12T00:49:59.109Z,13.26
2022-09-12T00:52:33.548Z,13.09
2022-09-12T00:55:06.408Z,12.95
2022-09-12T00:57:38.810Z,13.05
2022-09-12T01:00:14.550Z,13.03
2022-09-12T01:02:43.633Z,13.01
2022-09-12T01:05:12.213Z,13.00
2022-09-12T01:07:42.676Z,12.94
2022-09-12T01:10:11.439Z,12.86
2022-09-12T01:12:41.199Z,12.88
2022-09-12T01:15:10.328Z,12.78
2022-09-12T01:17:50.029Z,12.69
2022-09-12T01:20:54.735Z,12.62
2022-09-12T01:23:49.287Z,12.66
2022-09-12T01:26:45.382Z,12.70
2022-09-12T01:29:33.603Z,12.53
2022-09-12T01:32:11.669Z,12.65
2022-09-12T01:34:48.593Z,12.55
2022-09-12T01:37:26.041Z,12.71
2022-09-12T01:40:10.379Z,12.77
2022-09-12T01:42:47.015Z,12.91
2022-09-12T01:45:19.843Z,12.99
2022-09-12T01:47:53.071Z,12.83
2022-09-12T01:50:25.750Z,12.84
2022-09-12T01:52:58.780Z,12.72
2022-09-12T01:55:31.857Z,12.66
2022-09-12T01:58:06.299Z,12.66
2022-09-12T02:00:38.314Z,12.59
2022-09-12T02:03:11.793Z,12.54
2022-09-12T02:05:45.835Z,12.67
2022-09-12T02:08:18.039Z,12.54
2022-09-12T02:10:51.988Z,12.60
2022-09-12T02:13:24.124Z,12.59
2022-09-12T02:15:56.711Z,12.48
2022-09-12T02:18:30.104Z,12.48
2022-09-12T02:20:58.469Z,12.37
2022-09-12T02:23:29.565Z,12.33
2022-09-12T02:26:02.327Z,12.28
2022-09-12T02:28:35.162Z,12.41
2022-09-12T02:31:15.293Z,12.46
2022-09-12T02:33:53.285Z,12.52
2022-09-12T02:36:33.339Z,12.40
2022-09-12T02:39:01.525Z,12.38
2022-09-12T02:41:29.586Z,12.37
2022-09-12T02:43:57.472Z,12.35
2022-09-12T02:46:30.759Z,12.37
2022-09-12T02:49:00.150Z,12.29
2022-09-12T02:51:28.255Z,12.30
2022-09-12T02:53:57.118Z,12.22
2022-09-12T02:56:28.389Z,12.25
2022-09-12T02:59:00.736Z,12.37
2022-09-12T03:01:42.002Z,12.36
2022-09-12T03:04:27.178Z,12.32
2022-09-12T03:07:10.728Z,12.43
2022-09-12T03:09:47.180Z,12.31
2022-09-12T03:12:33.048Z,12.35
2022-09-12T03:15:20.298Z,12.23
2022-09-12T03:18:03.010Z,12.20
2022-09-12T03:20:46.121Z,12.20
2022-09-12T03:23:25.182Z,12.19
2022-09-12T03:25:58.445Z,12.18
2022-09-12T03:28:26.854Z,12.17
2022-09-12T03:30:56.490Z,12.18
2022-09-12T03:33:25.973Z,12.17
2022-09-12T03:35:56.305Z,12.13
2022-09-12T03:38:23.958Z,12.15
2022-09-12T03:40:54.879Z,12.12
2022-09-12T03:43:22.818Z,12.11
2022-09-12T03:45:53.213Z,12.05
2022-09-12T03:48:20.962Z,12.17
2022-09-12T03:50:48.642Z,12.20
2022-09-12T03:53:17.928Z,12.20
2022-09-12T03:55:45.630Z,12.19
2022-09-12T03:58:13.307Z,12.22
2022-09-12T04:00:42.821Z,12.17
2022-09-12T04:03:10.488Z,12.33
2022-09-12T04:05:38.137Z,12.29
2022-09-12T04:08:05.856Z,12.12
2022-09-12T04:10:34.933Z,12.02
2022-09-12T04:13:02.841Z,12.22
2022-09-12T04:15:30.530Z,12.38
2022-09-12T04:18:00.467Z,12.40
2022-09-12T04:20:31.428Z,12.29
2022-09-12T04:22:59.075Z,12.36
2022-09-12T04:25:28.270Z,12.20
2022-09-12T04:27:57.434Z,12.10
2022-09-12T04:30:25.160Z,12.04
2022-09-12T04:32:52.869Z,12.00
2022-09-12T04:35:20.524Z,11.91
2022-09-12T04:37:48.179Z,11.90
2022-09-12T04:40:16.103Z,11.88
2022-09-12T04:42:43.854Z,11.85
2022-09-12T04:45:13.476Z,11.89
2022-09-12T04:47:41.132Z,11.98
2022-09-12T04:50:09.785Z,11.92
2022-09-12T04:52:37.419Z,11.88
2022-09-12T04:55:05.731Z,11.86
2022-09-12T04:57:33.661Z,11.84
2022-09-12T05:00:06.478Z,11.94
2022-09-12T05:02:36.482Z,12.00
2022-09-12T05:05:04.275Z,12.12
2022-09-12T05:07:32.024Z,12.12
2022-09-12T05:10:00.509Z,12.17
2022-09-12T05:12:28.729Z,12.16
2022-09-12T05:14:56.572Z,12.09
2022-09-12T05:17:24.180Z,12.02
2022-09-12T05:19:53.184Z,12.04
2022-09-12T05:22:20.788Z,12.06
2022-09-12T05:24:50.579Z,12.10
2022-09-12T05:27:18.745Z,12.13
2022-09-12T05:29:46.440Z,12.12
2022-09-12T05:32:14.105Z,12.30
2022-09-12T05:34:41.856Z,12.33
2022-09-12T05:37:10.867Z,12.33
2022-09-12T05:39:38.628Z,12.22
2022-09-12T05:42:07.264Z,12.22
2022-09-12T05:44:34.945Z,12.26
2022-09-12T05:47:02.609Z,12.30
2022-09-12T05:49:30.259Z,12.27
2022-09-12T05:51:57.965Z,12.49
2022-09-12T05:54:31.369Z,12.50
2022-09-12T05:57:00.152Z,12.48
2022-09-12T05:59:28.504Z,12.59
2022-09-12T06:01:56.274Z,12.62
2022-09-12T06:04:24.986Z,12.79
2022-09-12T06:06:52.725Z,12.88
2022-09-12T06:09:20.687Z,12.81
2022-09-12T06:11:49.677Z,12.93
2022-09-12T06:14:19.413Z,12.95
2022-09-12T06:16:48.572Z,12.97
2022-09-12T06:19:18.485Z,13.08
2022-09-12T06:21:47.610Z,12.92
2022-09-12T06:24:15.364Z,12.99
2022-09-12T06:26:43.753Z,13.23
2022-09-12T06:29:13.294Z,13.20
2022-09-12T06:31:42.769Z,13.15
2022-09-12T06:34:12.797Z,13.09
2022-09-12T06:36:42.268Z,13.27
2022-09-12T06:39:13.304Z,13.33
2022-09-12T06:41:44.002Z,13.46
2022-09-12T06:44:15.599Z,13.50
2022-09-12T06:46:44.220Z,13.57
2022-09-12T06:49:12.378Z,13.65
2022-09-12T06:51:41.920Z,13.59
2022-09-12T06:54:10.769Z,13.71
2022-09-12T06:56:38.951Z,13.76
2022-09-12T06:59:06.680Z,13.85
2022-09-12T07:01:35.747Z,13.94
2022-09-12T07:04:05.267Z,14.13
2022-09-12T07:06:38.253Z,14.17
2022-09-12T07:09:08.093Z,14.25
2022-09-12T07:11:38.055Z,14.48
2022-09-12T07:14:07.848Z,14.51
2022-09-12T07:16:38.232Z,14.44
2022-09-12T07:19:08.195Z,14.53
2022-09-12T07:21:40.019Z,14.64
2022-09-12T07:24:09.799Z,14.67
2022-09-12T07:26:38.556Z,14.75
2022-09-12T07:29:34.726Z,14.89
2022-09-12T07:31:55.587Z,14.98
2022-09-12T07:34:23.334Z,15.11
2022-09-12T07:36:50.997Z,15.17
2022-09-12T07:39:18.796Z,15.15
2022-09-12T07:41:46.663Z,14.98
2022-09-12T07:44:14.390Z,15.20
2022-09-12T07:46:42.057Z,15.14
2022-09-12T07:49:13.261Z,15.40
2022-09-12T07:51:41.205Z,15.37
2022-09-12T07:54:10.126Z,15.55
2022-09-12T07:56:39.315Z,15.52
2022-09-12T07:59:07.472Z,15.71
2022-09-12T08:01:35.268Z,15.68
2022-09-12T08:04:04.895Z,15.78
2022-09-12T08:06:36.061Z,15.66
2022-09-12T08:09:05.440Z,15.73
2022-09-12T08:11:33.387Z,15.66
2022-09-12T08:14:03.023Z,15.80
2022-09-12T08:16:32.134Z,15.99
2022-09-12T08:19:02.016Z,16.01
2022-09-12T08:21:31.622Z,16.04
2022-09-12T08:24:02.139Z,16.17
2022-09-12T08:26:30.407Z,16.11
2022-09-12T08:28:58.322Z,16.23
2022-09-12T08:31:27.769Z,16.40
2022-09-12T08:33:57.445Z,16.53
2022-09-12T08:36:27.739Z,16.45
2022-09-12T08:39:00.000Z,16.43
2022-09-12T08:41:34.787Z,16.76
2022-09-12T08:44:19.739Z,16.80
2022-09-12T08:47:01.960Z,16.99
2022-09-12T08:49:34.705Z,17.15
2022-09-12T08:52:08.094Z,17.39
2022-09-12T08:54:36.171Z,17.37
2022-09-12T08:57:07.317Z,17.23
2022-09-12T08:59:38.871Z,17.37
2022-09-12T09:02:28.659Z,17.44
2022-09-12T09:05:06.481Z,17.55
2022-09-12T09:07:55.714Z,17.70
2022-09-12T09:10:29.334Z,17.52
2022-09-12T09:13:07.624Z,17.64
2022-09-12T09:15:48.637Z,17.71
2022-09-12T09:18:21.101Z,17.82
2022-09-12T09:20:54.686Z,17.77
2022-09-12T09:23:28.198Z,17.75
2022-09-12T09:26:01.781Z,17.95
2022-09-12T09:28:37.693Z,17.87
2022-09-12T09:31:06.956Z,17.57
2022-09-12T09:33:38.505Z,17.52
2022-09-12T09:36:19.262Z,17.68
2022-09-12T09:38:50.319Z,17.78
2022-09-12T09:41:31.925Z,18.02
2022-09-12T09:44:02.951Z,17.99
2022-09-12T09:46:31.184Z,18.23
2022-09-12T09:49:03.211Z,18.26
2022-09-12T09:51:38.635Z,18.50
2022-09-12T09:54:18.892Z,18.61
2022-09-12T09:56:46.554Z,18.47
2022-09-12T09:59:17.950Z,18.42
2022-09-12T10:01:47.740Z,18.52
2022-09-12T10:04:21.043Z,18.59
2022-09-12T10:06:49.184Z,18.33
2022-09-12T10:09:22.686Z,18.40
2022-09-12T10:11:52.094Z,18.42
2022-09-12T10:14:39.775Z,18.43
2022-09-12T10:17:28.680Z,18.48
2022-09-12T10:20:20.078Z,18.76
2022-09-12T10:22:49.585Z,19.12
2022-09-12T10:25:20.253Z,19.31
2022-09-12T10:27:55.146Z,19.30
2022-09-12T10:30:28.317Z,19.18
2022-09-12T10:33:06.137Z,19.18
2022-09-12T10:35:46.001Z,19.29
2022-09-12T10:38:19.283Z,19.51
2022-09-12T10:40:47.041Z,19.57
2022-09-12T10:43:19.146Z,19.38
2022-09-12T10:45:48.272Z,19.31
2022-09-12T10:48:29.660Z,19.41
2022-09-12T10:50:58.726Z,19.04
2022-09-12T10:53:32.257Z,19.47
2022-09-12T10:56:08.244Z,19.86
2022-09-12T10:58:49.443Z,19.79
2022-09-12T11:01:30.656Z,19.79
2022-09-12T11:04:15.723Z,19.80
2022-09-12T11:06:57.952Z,20.28
2022-09-12T11:09:35.771Z,20.54
2022-09-12T11:12:14.281Z,20.76
2022-09-12T11:14:57.336Z,20.32
2022-09-12T11:17:41.876Z,20.28
2022-09-12T11:20:31.935Z,20.36
2022-09-12T11:23:26.966Z,20.31
2022-09-12T11:26:01.289Z,19.86
2022-09-12T11:28:40.119Z,20.10
2022-09-12T11:31:32.875Z,20.39
2022-09-12T11:34:09.043Z,20.57
2022-09-12T11:36:47.075Z,20.93
2022-09-12T11:39:17.043Z,20.84
2022-09-12T11:41:50.382Z,20.83
2022-09-12T11:44:22.533Z,20.47
2022-09-12T11:46:52.062Z,20.55
2022-09-12T11:49:35.240Z,20.59
2022-09-12T11:52:12.071Z,20.78
2022-09-12T11:54:44.850Z,20.67
2022-09-12T11:57:19.829Z,20.83
2022-09-12T11:59:54.087Z,20.61
2022-09-12T12:02:28.182Z,20.56
2022-09-12T12:05:20.580Z,20.51
2022-09-12T12:07:53.933Z,20.51
2022-09-12T12:10:36.106Z,20.43
2022-09-12T12:13:13.265Z,20.42
2022-09-12T12:15:48.444Z,20.53
2022-09-12T12:18:20.230Z,20.50
2022-09-12T12:20:49.904Z,20.53
2022-09-12T12:23:29.172Z,20.57
2022-09-12T12:25:58.851Z,20.24
2022-09-12T12:29:00.183Z,20.38
2022-09-12T12:31:28.066Z,20.31
2022-09-12T12:34:29.159Z,20.45
2022-09-12T12:36:59.294Z,20.31
2022-09-12T12:40:02.881Z,20.62
2022-09-12T12:43:05.138Z,20.56
2022-09-12T12:46:05.050Z,20.47
2022-09-12T12:48:50.242Z,20.71
2022-09-12T12:51:41.021Z,20.59
2022-09-12T12:54:32.637Z,20.75
2022-09-12T12:57:07.074Z,20.34
2022-09-12T12:59:35.475Z,20.51
2022-09-12T13:02:05.834Z,20.59
2022-09-12T13:04:35.092Z,20.61
2022-09-12T13:07:08.398Z,20.65
2022-09-12T13:09:45.532Z,20.79
2022-09-12T13:12:20.765Z,20.72
2022-09-12T13:14:58.349Z,21.07
2022-09-12T13:17:36.400Z,20.86
2022-09-12T13:20:27.808Z,20.98
2022-09-12T13:22:56.742Z,21.10
2022-09-12T13:25:36.749Z,20.86
2022-09-12T13:28:07.908Z,21.14
2022-09-12T13:30:37.826Z,21.06
2022-09-12T13:33:17.780Z,20.79
2022-09-12T13:36:08.748Z,20.79
2022-09-12T13:38:51.088Z,21.11
2022-09-12T13:41:40.470Z,21.21
2022-09-12T13:44:13.180Z,21.24
2022-09-12T13:46:41.323Z,21.02
2022-09-12T13:49:20.214Z,21.02
2022-09-12T13:51:57.509Z,20.97
2022-09-12T13:54:26.129Z,21.04
2022-09-12T13:56:55.696Z,21.12
2022-09-12T13:59:23.922Z,21.11
2022-09-12T14:01:51.830Z,21.32
2022-09-12T14:04:39.505Z,21.09
2022-09-12T14:07:14.938Z,21.01
2022-09-12T14:09:45.705Z,20.78
2022-09-12T14:12:25.364Z,20.99
2022-09-12T14:14:54.442Z,21.03
2022-09-12T14:17:29.825Z,20.87
2022-09-12T14:19:59.471Z,20.93
2022-09-12T14:22:29.807Z,21.01
2022-09-12T14:24:59.828Z,21.03
2022-09-12T14:27:32.946Z,21.01
2022-09-12T14:30:03.746Z,20.75
2022-09-12T14:32:31.641Z,20.87
2022-09-12T14:35:06.994Z,20.86
2022-09-12T14:37:34.753Z,20.84
2022-09-12T14:40:05.223Z,20.79
2022-09-12T14:42:34.998Z,20.85
2022-09-12T14:45:14.090Z,20.75
2022-09-12T14:47:44.731Z,20.78
2022-09-12T14:50:18.952Z,20.85
2022-09-12T14:52:46.625Z,20.61
2022-09-12T14:55:25.018Z,20.62
2022-09-12T14:58:12.968Z,20.72
2022-09-12T15:00:53.731Z,20.54
2022-09-12T15:03:27.127Z,20.48
2022-09-12T15:05:55.215Z,20.97
2022-09-12T15:08:23.012Z,20.71
2022-09-12T15:10:50.924Z,20.55
2022-09-12T15:13:22.964Z,20.43
2022-09-12T15:15:53.125Z,20.60
2022-09-12T15:18:22.639Z,20.65
2022-09-12T15:20:53.482Z,20.75
2022-09-12T15:23:33.163Z,20.74
2022-09-12T15:26:00.938Z,20.77
2022-09-12T15:28:32.267Z,20.72
2022-09-12T15:31:06.860Z,20.63
2022-09-12T15:33:35.090Z,20.64
2022-09-12T15:36:03.443Z,20.58
2022-09-12T15:38:31.145Z,20.26
2022-09-12T15:40:58.854Z,20.47
2022-09-12T15:43:27.252Z,20.59
2022-09-12T15:45:56.305Z,20.46
2022-09-12T15:48:24.556Z,20.41
2022-09-12T15:50:52.224Z,20.23
2022-09-12T15:53:19.935Z,20.13
2022-09-12T15:55:47.625Z,20.04
2022-09-12T15:58:15.350Z,19.94
2022-09-12T16:00:43.044Z,20.13
2022-09-12T16:03:23.542Z,19.99
2022-09-12T16:05:51.882Z,19.99
2022-09-12T16:08:19.568Z,20.00
2022-09-12T16:10:50.483Z,19.88
2022-09-12T16:13:18.356Z,19.68
2022-09-12T16:15:46.345Z,19.71
2022-09-12T16:18:15.689Z,19.67
2022-09-12T16:20:43.437Z,19.69
2022-09-12T16:23:12.122Z,19.68
2022-09-12T16:25:39.944Z,19.58
2022-09-12T16:28:07.916Z,19.49
2022-09-12T16:30:36.138Z,19.53
2022-09-12T16:33:04.825Z,19.55
2022-09-12T16:35:34.273Z,19.56
2022-09-12T16:38:02.496Z,19.42
2022-09-12T16:40:31.138Z,19.36
2022-09-12T16:42:58.865Z,19.43
2022-09-12T16:45:26.703Z,19.42
2022-09-12T16:47:54.465Z,19.34
2022-09-12T16:50:22.184Z,19.25
2022-09-12T16:52:59.367Z,19.19
2022-09-12T16:55:33.764Z,19.14
2022-09-12T16:58:08.508Z,19.12
2022-09-12T17:00:41.571Z,19.07
2022-09-12T17:03:14.875Z,18.99
2022-09-12T17:05:47.404Z,19.00
2022-09-12T17:08:24.199Z,18.95
2022-09-12T17:11:02.357Z,18.89
2022-09-12T17:14:00.259Z,18.85
2022-09-12T17:16:29.775Z,18.75
2022-09-12T17:19:04.012Z,18.74
2022-09-12T17:21:35.078Z,18.64
2022-09-12T17:24:10.422Z,18.59
2022-09-12T17:26:44.304Z,18.54
2022-09-12T17:29:13.845Z,18.49
2022-09-12T17:31:41.764Z,18.40
2022-09-12T17:34:10.531Z,18.34
2022-09-12T17:36:39.334Z,18.30
2022-09-12T17:39:08.372Z,18.29
2022-09-12T17:41:37.263Z,18.24
2022-09-12T17:44:07.573Z,18.25
2022-09-12T17:46:37.258Z,18.23
2022-09-12T17:49:07.340Z,18.19
2022-09-12T17:51:35.474Z,18.09
2022-09-12T17:54:05.534Z,18.00
2022-09-12T17:56:35.947Z,17.92
2022-09-12T17:59:04.583Z,17.88
2022-09-12T18:01:50.052Z,17.92
2022-09-12T18:04:18.238Z,17.86
2022-09-12T18:06:48.655Z,17.85
2022-09-12T18:09:18.465Z,17.84
2022-09-12T18:11:48.595Z,17.74
2022-09-12T18:14:17.222Z,17.65
2022-09-12T18:16:45.377Z,17.59
2022-09-12T18:19:13.499Z,17.50
2022-09-12T18:21:41.218Z,17.47
2022-09-12T18:24:10.384Z,17.36
2022-09-12T18:26:38.478Z,17.41
2022-09-12T18:29:08.050Z,17.55
2022-09-12T18:31:36.180Z,17.48
2022-09-12T18:34:05.873Z,17.53
2022-09-12T18:36:33.645Z,17.36
2022-09-12T18:39:01.278Z,17.31
2022-09-12T18:41:29.245Z,17.23
2022-09-12T18:43:58.599Z,17.16
2022-09-12T18:46:29.345Z,17.10
2022-09-12T18:48:58.365Z,17.01
2022-09-12T18:51:31.323Z,16.95
2022-09-12T18:54:00.969Z,16.83
2022-09-12T18:56:32.235Z,16.82
2022-09-12T18:59:01.159Z,16.85
2022-09-12T19:01:32.297Z,16.95
2022-09-12T19:04:01.096Z,16.97
2022-09-12T19:06:31.542Z,16.84
2022-09-12T19:09:03.830Z,16.73
2022-09-12T19:11:34.788Z,16.71
2022-09-12T19:14:02.497Z,16.82
2022-09-12T19:16:31.486Z,16.76
2022-09-12T19:18:59.973Z,16.63
2022-09-12T19:21:29.931Z,16.49
2022-09-12T19:24:00.153Z,16.63
2022-09-12T19:26:28.236Z,16.61
2022-09-12T19:28:56.594Z,16.64
2022-09-12T19:31:24.429Z,16.72
2022-09-12T19:33:53.762Z,16.70
2022-09-12T19:39:11.263Z,16.37
2022-09-12T19:41:38.961Z,16.35
2022-09-12T19:44:07.146Z,16.50
2022-09-12T19:46:34.974Z,16.66
2022-09-12T19:49:04.643Z,16.50
2022-09-12T19:51:32.377Z,16.39
2022-09-12T19:54:00.065Z,16.33
2022-09-12T19:56:27.696Z,16.17
2022-09-12T19:58:56.709Z,16.21
2022-09-12T20:01:28.160Z,16.44
2022-09-12T20:03:56.551Z,16.19
2022-09-12T20:06:26.753Z,15.98
2022-09-12T20:08:54.472Z,15.91
2022-09-12T20:11:24.386Z,15.71
2022-09-12T20:13:52.705Z,15.61
2022-09-12T20:16:22.916Z,15.62
2022-09-12T20:18:54.983Z,15.55
2022-09-12T20:21:31.039Z,15.52
2022-09-12T20:24:02.317Z,15.45
2022-09-12T20:26:30.124Z,15.48
2022-09-12T20:28:57.824Z,15.34
2022-09-12T20:31:25.686Z,15.35
2022-09-12T20:33:53.556Z,15.22
2022-09-12T20:36:22.309Z,15.14
2022-09-12T20:38:52.918Z,15.08
2022-09-12T20:41:22.074Z,15.13
2022-09-12T20:43:51.137Z,15.17
2022-09-12T20:46:21.794Z,15.22
2022-09-12T20:48:50.713Z,15.13
2022-09-12T20:51:18.772Z,15.03
2022-09-12T20:53:46.746Z,14.99
2022-09-12T20:56:15.794Z,14.97
2022-09-12T20:58:44.765Z,14.97
2022-09-12T21:01:13.685Z,14.92
2022-09-12T21:03:42.735Z,14.90
2022-09-12T21:06:12.471Z,14.95
2022-09-12T21:08:40.231Z,14.90
2022-09-12T21:11:08.363Z,14.90
2022-09-12T21:13:38.001Z,14.95
2022-09-12T21:16:07.798Z,14.88
2022-09-12T21:18:36.322Z,14.86
2022-09-12T21:21:04.581Z,14.83
2022-09-12T21:23:32.856Z,14.76
2022-09-12T21:26:01.401Z,14.78
2022-09-12T21:28:29.201Z,14.85
2022-09-12T21:30:58.658Z,14.74
2022-09-12T21:33:26.629Z,14.70
2022-09-12T21:35:54.380Z,14.79
2022-09-12T21:38:22.131Z,14.72
2022-09-12T21:40:49.822Z,14.74
2022-09-12T21:43:17.494Z,14.74
2022-09-12T21:45:45.212Z,14.71
2022-09-12T21:48:14.236Z,14.68
2022-09-12T21:50:42.231Z,14.63
2022-09-12T21:53:09.884Z,14.56
2022-09-12T21:55:37.713Z,14.50
2022-09-12T21:58:05.909Z,14.50
2022-09-12T22:00:33.599Z,14.47
2022-09-12T22:03:01.756Z,14.47
2022-09-12T22:05:32.697Z,14.48
2022-09-12T22:08:00.865Z,14.47
2022-09-12T22:10:28.816Z,14.43
2022-09-12T22:12:56.817Z,14.58
2022-09-12T22:15:41.355Z,14.59
2022-09-12T22:18:09.273Z,14.56
2022-09-12T22:20:38.355Z,14.50
2022-09-12T22:23:24.981Z,14.42
2022-09-12T22:25:55.475Z,14.48
2022-09-12T22:28:24.480Z,14.40
2022-09-12T22:30:53.253Z,14.43
2022-09-12T22:33:21.189Z,14.43
2022-09-12T22:35:50.211Z,14.41
2022-09-12T22:38:18.030Z,14.39
2022-09-12T22:40:45.778Z,14.37
2022-09-12T22:43:13.506Z,14.41
2022-09-12T22:45:42.747Z,14.41
2022-09-12T22:48:10.489Z,14.41
2022-09-12T22:50:38.443Z,14.44
2022-09-12T22:53:07.412Z,14.43
2022-09-12T22:55:35.152Z,14.37
2022-09-12T22:58:03.657Z,14.37
2022-09-12T23:00:31.386Z,14.39
2022-09-12T23:02:59.313Z,14.42
2022-09-12T23:05:27.047Z,14.44
2022-09-12T23:07:55.275Z,14.41
2022-09-12T23:10:27.127Z,14.41
2022-09-12T23:12:55.354Z,14.35
2022-09-12T23:15:23.084Z,14.32
2022-09-12T23:17:50.747Z,14.34
2022-09-12T23:20:18.610Z,14.39
2022-09-12T23:22:46.299Z,14.40
2022-09-12T23:25:14.860Z,14.42
2022-09-12T23:27:43.854Z,14.44
2022-09-12T23:30:12.977Z,14.39
2022-09-12T23:32:40.720Z,14.31
2022-09-12T23:35:08.762Z,14.32
2022-09-12T23:37:36.436Z,14.38
2022-09-12T23:40:04.897Z,14.38
2022-09-12T23:42:32.525Z,14.41
2022-09-12T23:45:01.805Z,14.37
2022-09-12T23:47:29.478Z,14.38
2022-09-12T23:49:57.138Z,14.34
2022-09-12T23:52:24.915Z,14.31
2022-09-12T23:54:52.608Z,14.25
2022-09-12T23:57:20.272Z,14.25
2022-09-12T23:59:47.970Z,14.27
